sensor_id;sensor_type;location;lat;lon;timestamp;P1;durP1;ratioP1;P2;durP2;ratioP2
17524;SDS011;40431;52.198;9.902;2022-07-06T00:01:29;4.23;;;1.40;;
17524;SDS011;40431;52.198;9.902;2022-07-06T00:03:56;3.90;;;1.40;;
17524;SDS011;40431;52.198;9.902;2022-07-06T00:06:24;5.53;;;1.73;;
17524;SDS011;40431;52.198;9.902;2022-07-06T00:08:53;2.13;;;1.60;;
17524;SDS011;40431;52.198;9.902;2022-07-06T00:11:27;3.00;;;1.23;;
17524;SDS011;40431;52.198;9.902;2022-07-06T00:13:57;4.20;;;1.67;;
17524;SDS011;40431;52.198;9.902;2022-07-06T00:16:25;2.00;;;1.10;;
17524;SDS011;40431;52.198;9.902;2022-07-06T00:18:53;1.80;;;1.30;;
17524;SDS011;40431;52.198;9.902;2022-07-06T00:21:23;2.53;;;1.30;;
17524;SDS011;40431;52.198;9.902;2022-07-06T00:23:52;2.40;;;1.20;;
17524;SDS011;40431;52.198;9.902;2022-07-06T00:29:09;1.87;;;1.20;;
17524;SDS011;40431;52.198;9.902;2022-07-06T00:31:37;3.87;;;1.37;;
17524;SDS011;40431;52.198;9.902;2022-07-06T00:34:05;3.27;;;1.20;;
17524;SDS011;40431;52.198;9.902;2022-07-06T00:36:32;3.43;;;1.23;;
17524;SDS011;40431;52.198;9.902;2022-07-06T00:39:00;2.17;;;1.27;;
17524;SDS011;40431;52.198;9.902;2022-07-06T00:41:28;3.40;;;1.40;;
17524;SDS011;40431;52.198;9.902;2022-07-06T00:44:00;2.47;;;1.00;;
17524;SDS011;40431;52.198;9.902;2022-07-06T00:46:33;4.27;;;1.33;;
17524;SDS011;40431;52.198;9.902;2022-07-06T00:49:01;1.83;;;1.30;;
17524;SDS011;40431;52.198;9.902;2022-07-06T00:51:29;3.03;;;1.07;;
17524;SDS011;40431;52.198;9.902;2022-07-06T00:53:59;3.17;;;1.30;;
17524;SDS011;40431;52.198;9.902;2022-07-06T00:56:29;2.13;;;1.07;;
17524;SDS011;40431;52.198;9.902;2022-07-06T00:58:58;2.63;;;1.00;;
17524;SDS011;40431;52.198;9.902;2022-07-06T01:01:28;2.87;;;1.37;;
17524;SDS011;40431;52.198;9.902;2022-07-06T01:03:55;2.00;;;1.13;;
17524;SDS011;40431;52.198;9.902;2022-07-06T01:06:23;3.77;;;1.57;;
17524;SDS011;40431;52.198;9.902;2022-07-06T01:08:54;1.70;;;1.00;;
17524;SDS011;40431;52.198;9.902;2022-07-06T01:11:22;2.67;;;1.30;;
17524;SDS011;40431;52.198;9.902;2022-07-06T01:13:50;2.37;;;1.10;;
17524;SDS011;40431;52.198;9.902;2022-07-06T01:16:20;3.33;;;1.47;;
17524;SDS011;40431;52.198;9.902;2022-07-06T01:18:48;2.40;;;1.37;;
17524;SDS011;40431;52.198;9.902;2022-07-06T01:21:18;1.27;;;1.17;;
17524;SDS011;40431;52.198;9.902;2022-07-06T01:23:46;2.37;;;1.40;;
17524;SDS011;40431;52.198;9.902;2022-07-06T01:26:16;1.93;;;1.20;;
17524;SDS011;40431;52.198;9.902;2022-07-06T01:28:46;1.77;;;1.20;;
17524;SDS011;40431;52.198;9.902;2022-07-06T01:31:16;3.63;;;1.30;;
17524;SDS011;40431;52.198;9.902;2022-07-06T01:33:46;1.90;;;1.20;;
17524;SDS011;40431;52.198;9.902;2022-07-06T01:36:15;2.80;;;1.27;;
17524;SDS011;40431;52.198;9.902;2022-07-06T01:38:46;1.40;;;1.30;;
17524;SDS011;40431;52.198;9.902;2022-07-06T01:41:18;2.67;;;1.20;;
17524;SDS011;40431;52.198;9.902;2022-07-06T01:43:47;1.67;;;1.10;;
17524;SDS011;40431;52.198;9.902;2022-07-06T01:46:16;2.47;;;1.40;;
17524;SDS011;40431;52.198;9.902;2022-07-06T01:48:44;2.37;;;1.30;;
17524;SDS011;40431;52.198;9.902;2022-07-06T01:51:12;1.43;;;0.93;;
17524;SDS011;40431;52.198;9.902;2022-07-06T01:53:43;3.03;;;1.47;;
17524;SDS011;40431;52.198;9.902;2022-07-06T01:56:11;3.03;;;1.13;;
17524;SDS011;40431;52.198;9.902;2022-07-06T01:58:39;3.17;;;1.60;;
17524;SDS011;40431;52.198;9.902;2022-07-06T02:01:07;2.70;;;1.27;;
17524;SDS011;40431;52.198;9.902;2022-07-06T02:03:36;1.70;;;1.20;;
17524;SDS011;40431;52.198;9.902;2022-07-06T02:06:05;3.37;;;1.10;;
17524;SDS011;40431;52.198;9.902;2022-07-06T02:08:34;2.27;;;1.20;;
17524;SDS011;40431;52.198;9.902;2022-07-06T02:11:06;3.47;;;1.30;;
17524;SDS011;40431;52.198;9.902;2022-07-06T02:13:40;6.03;;;1.30;;
17524;SDS011;40431;52.198;9.902;2022-07-06T02:16:08;1.57;;;1.07;;
17524;SDS011;40431;52.198;9.902;2022-07-06T02:18:40;3.87;;;1.00;;
17524;SDS011;40431;52.198;9.902;2022-07-06T02:21:08;4.17;;;1.10;;
17524;SDS011;40431;52.198;9.902;2022-07-06T02:23:39;1.20;;;1.10;;
17524;SDS011;40431;52.198;9.902;2022-07-06T02:26:13;2.67;;;1.47;;
17524;SDS011;40431;52.198;9.902;2022-07-06T02:28:45;1.77;;;0.90;;
17524;SDS011;40431;52.198;9.902;2022-07-06T02:31:19;2.20;;;1.57;;
17524;SDS011;40431;52.198;9.902;2022-07-06T02:33:46;2.77;;;1.33;;
17524;SDS011;40431;52.198;9.902;2022-07-06T02:36:14;2.33;;;1.40;;
17524;SDS011;40431;52.198;9.902;2022-07-06T02:38:42;2.03;;;1.07;;
17524;SDS011;40431;52.198;9.902;2022-07-06T02:41:09;1.47;;;1.20;;
17524;SDS011;40431;52.198;9.902;2022-07-06T02:43:39;2.57;;;1.10;;
17524;SDS011;40431;52.198;9.902;2022-07-06T02:46:06;2.13;;;1.03;;
17524;SDS011;40431;52.198;9.902;2022-07-06T02:48:34;2.70;;;1.20;;
17524;SDS011;40431;52.198;9.902;2022-07-06T02:51:02;2.27;;;1.10;;
17524;SDS011;40431;52.198;9.902;2022-07-06T02:53:30;2.40;;;1.30;;
17524;SDS011;40431;52.198;9.902;2022-07-06T02:55:58;1.77;;;1.30;;
17524;SDS011;40431;52.198;9.902;2022-07-06T02:58:26;2.43;;;1.20;;
17524;SDS011;40431;52.198;9.902;2022-07-06T03:00:55;4.20;;;1.30;;
17524;SDS011;40431;52.198;9.902;2022-07-06T03:03:23;2.13;;;1.10;;
17524;SDS011;40431;52.198;9.902;2022-07-06T03:05:51;1.33;;;0.97;;
17524;SDS011;40431;52.198;9.902;2022-07-06T03:08:20;3.63;;;1.20;;
17524;SDS011;40431;52.198;9.902;2022-07-06T03:10:48;0.93;;;0.90;;
17524;SDS011;40431;52.198;9.902;2022-07-06T03:13:16;3.43;;;1.47;;
17524;SDS011;40431;52.198;9.902;2022-07-06T03:15:44;1.30;;;1.10;;
17524;SDS011;40431;52.198;9.902;2022-07-06T03:18:14;2.03;;;1.20;;
17524;SDS011;40431;52.198;9.902;2022-07-06T03:20:41;2.23;;;1.17;;
17524;SDS011;40431;52.198;9.902;2022-07-06T03:23:08;2.07;;;1.20;;
17524;SDS011;40431;52.198;9.902;2022-07-06T03:25:36;3.13;;;1.10;;
17524;SDS011;40431;52.198;9.902;2022-07-06T03:28:04;1.83;;;0.93;;
17524;SDS011;40431;52.198;9.902;2022-07-06T03:30:31;1.87;;;1.37;;
17524;SDS011;40431;52.198;9.902;2022-07-06T03:32:59;2.83;;;1.30;;
17524;SDS011;40431;52.198;9.902;2022-07-06T03:35:27;2.23;;;1.10;;
17524;SDS011;40431;52.198;9.902;2022-07-06T03:37:53;1.33;;;1.00;;
17524;SDS011;40431;52.198;9.902;2022-07-06T03:40:20;2.60;;;1.07;;
17524;SDS011;40431;52.198;9.902;2022-07-06T03:42:46;1.73;;;1.00;;
17524;SDS011;40431;52.198;9.902;2022-07-06T03:45:12;3.27;;;1.17;;
17524;SDS011;40431;52.198;9.902;2022-07-06T03:47:39;2.33;;;1.40;;
17524;SDS011;40431;52.198;9.902;2022-07-06T03:50:06;3.03;;;1.40;;
17524;SDS011;40431;52.198;9.902;2022-07-06T03:52:35;2.10;;;1.10;;
17524;SDS011;40431;52.198;9.902;2022-07-06T03:55:04;1.70;;;1.13;;
17524;SDS011;40431;52.198;9.902;2022-07-06T03:57:32;2.53;;;1.60;;
17524;SDS011;40431;52.198;9.902;2022-07-06T03:59:59;3.50;;;1.23;;
17524;SDS011;40431;52.198;9.902;2022-07-06T04:02:25;1.63;;;1.20;;
17524;SDS011;40431;52.198;9.902;2022-07-06T04:04:52;3.70;;;1.30;;
17524;SDS011;40431;52.198;9.902;2022-07-06T04:07:18;3.70;;;1.10;;
17524;SDS011;40431;52.198;9.902;2022-07-06T04:09:46;3.63;;;1.57;;
17524;SDS011;40431;52.198;9.902;2022-07-06T04:12:12;2.57;;;1.20;;
17524;SDS011;40431;52.198;9.902;2022-07-06T04:14:39;1.43;;;1.13;;
17524;SDS011;40431;52.198;9.902;2022-07-06T04:17:05;3.80;;;1.50;;
17524;SDS011;40431;52.198;9.902;2022-07-06T04:19:45;2.00;;;1.13;;
17524;SDS011;40431;52.198;9.902;2022-07-06T04:22:12;3.37;;;1.00;;
17524;SDS011;40431;52.198;9.902;2022-07-06T04:24:38;5.33;;;1.20;;
17524;SDS011;40431;52.198;9.902;2022-07-06T04:27:06;2.57;;;1.47;;
17524;SDS011;40431;52.198;9.902;2022-07-06T04:29:32;2.93;;;1.10;;
17524;SDS011;40431;52.198;9.902;2022-07-06T04:31:59;3.57;;;1.43;;
17524;SDS011;40431;52.198;9.902;2022-07-06T04:34:25;2.13;;;1.10;;
17524;SDS011;40431;52.198;9.902;2022-07-06T04:36:51;2.27;;;1.20;;
17524;SDS011;40431;52.198;9.902;2022-07-06T04:39:18;3.17;;;1.40;;
17524;SDS011;40431;52.198;9.902;2022-07-06T04:41:45;1.83;;;1.30;;
17524;SDS011;40431;52.198;9.902;2022-07-06T04:44:12;2.07;;;1.00;;
17524;SDS011;40431;52.198;9.902;2022-07-06T04:46:39;2.27;;;1.20;;
17524;SDS011;40431;52.198;9.902;2022-07-06T04:49:05;2.67;;;1.30;;
17524;SDS011;40431;52.198;9.902;2022-07-06T04:51:31;3.60;;;1.30;;
17524;SDS011;40431;52.198;9.902;2022-07-06T04:53:58;2.97;;;1.20;;
17524;SDS011;40431;52.198;9.902;2022-07-06T04:56:24;3.00;;;1.43;;
17524;SDS011;40431;52.198;9.902;2022-07-06T04:58:51;2.50;;;1.20;;
17524;SDS011;40431;52.198;9.902;2022-07-06T05:01:18;2.17;;;1.17;;
17524;SDS011;40431;52.198;9.902;2022-07-06T05:03:45;3.50;;;1.27;;
17524;SDS011;40431;52.198;9.902;2022-07-06T05:06:11;1.67;;;1.10;;
17524;SDS011;40431;52.198;9.902;2022-07-06T05:08:37;2.00;;;1.30;;
17524;SDS011;40431;52.198;9.902;2022-07-06T05:11:04;3.07;;;1.43;;
17524;SDS011;40431;52.198;9.902;2022-07-06T05:13:30;8.23;;;1.60;;
17524;SDS011;40431;52.198;9.902;2022-07-06T05:15:57;3.37;;;1.40;;
17524;SDS011;40431;52.198;9.902;2022-07-06T05:18:24;2.87;;;1.43;;
17524;SDS011;40431;52.198;9.902;2022-07-06T05:20:51;2.93;;;1.40;;
17524;SDS011;40431;52.198;9.902;2022-07-06T05:23:17;6.47;;;2.03;;
17524;SDS011;40431;52.198;9.902;2022-07-06T05:25:43;4.57;;;1.40;;
17524;SDS011;40431;52.198;9.902;2022-07-06T05:28:10;2.07;;;1.40;;
17524;SDS011;40431;52.198;9.902;2022-07-06T05:30:36;3.30;;;1.23;;
17524;SDS011;40431;52.198;9.902;2022-07-06T05:33:03;2.23;;;1.50;;
17524;SDS011;40431;52.198;9.902;2022-07-06T05:35:30;2.77;;;1.43;;
17524;SDS011;40431;52.198;9.902;2022-07-06T05:37:57;2.80;;;1.20;;
17524;SDS011;40431;52.198;9.902;2022-07-06T05:40:23;4.80;;;1.63;;
17524;SDS011;40431;52.198;9.902;2022-07-06T05:42:49;4.70;;;2.00;;
17524;SDS011;40431;52.198;9.902;2022-07-06T05:45:16;5.23;;;1.63;;
17524;SDS011;40431;52.198;9.902;2022-07-06T05:47:42;1.70;;;1.60;;
17524;SDS011;40431;52.198;9.902;2022-07-06T05:50:26;3.13;;;1.60;;
17524;SDS011;40431;52.198;9.902;2022-07-06T05:52:58;3.07;;;1.30;;
17524;SDS011;40431;52.198;9.902;2022-07-06T05:55:25;3.17;;;1.40;;
17524;SDS011;40431;52.198;9.902;2022-07-06T05:57:52;2.67;;;1.33;;
17524;SDS011;40431;52.198;9.902;2022-07-06T06:00:20;2.17;;;1.13;;
17524;SDS011;40431;52.198;9.902;2022-07-06T06:02:47;2.07;;;1.30;;
17524;SDS011;40431;52.198;9.902;2022-07-06T06:05:14;1.70;;;1.10;;
17524;SDS011;40431;52.198;9.902;2022-07-06T06:07:41;3.23;;;1.40;;
17524;SDS011;40431;52.198;9.902;2022-07-06T06:10:10;1.73;;;1.33;;
17524;SDS011;40431;52.198;9.902;2022-07-06T06:12:37;2.60;;;1.43;;
17524;SDS011;40431;52.198;9.902;2022-07-06T06:15:05;1.93;;;1.40;;
17524;SDS011;40431;52.198;9.902;2022-07-06T06:17:32;3.13;;;1.20;;
17524;SDS011;40431;52.198;9.902;2022-07-06T06:19:59;2.33;;;1.20;;
17524;SDS011;40431;52.198;9.902;2022-07-06T06:22:26;4.20;;;1.20;;
17524;SDS011;40431;52.198;9.902;2022-07-06T06:24:52;3.50;;;1.33;;
17524;SDS011;40431;52.198;9.902;2022-07-06T06:27:20;4.63;;;1.17;;
17524;SDS011;40431;52.198;9.902;2022-07-06T06:29:46;2.60;;;1.20;;
17524;SDS011;40431;52.198;9.902;2022-07-06T06:32:13;2.73;;;1.40;;
17524;SDS011;40431;52.198;9.902;2022-07-06T06:34:39;1.87;;;1.30;;
17524;SDS011;40431;52.198;9.902;2022-07-06T06:37:06;3.20;;;1.50;;
17524;SDS011;40431;52.198;9.902;2022-07-06T06:39:33;2.60;;;1.30;;
17524;SDS011;40431;52.198;9.902;2022-07-06T06:41:59;2.37;;;1.43;;
17524;SDS011;40431;52.198;9.902;2022-07-06T06:44:27;6.53;;;1.20;;
17524;SDS011;40431;52.198;9.902;2022-07-06T06:46:53;3.07;;;1.20;;
17524;SDS011;40431;52.198;9.902;2022-07-06T06:49:20;5.73;;;1.70;;
17524;SDS011;40431;52.198;9.902;2022-07-06T06:51:46;2.40;;;1.30;;
17524;SDS011;40431;52.198;9.902;2022-07-06T06:54:12;4.27;;;1.07;;
17524;SDS011;40431;52.198;9.902;2022-07-06T06:56:39;3.93;;;1.60;;
17524;SDS011;40431;52.198;9.902;2022-07-06T06:59:10;2.47;;;1.30;;
17524;SDS011;40431;52.198;9.902;2022-07-06T07:01:39;2.77;;;1.33;;
17524;SDS011;40431;52.198;9.902;2022-07-06T07:04:07;2.43;;;1.30;;
17524;SDS011;40431;52.198;9.902;2022-07-06T07:06:35;4.17;;;1.20;;
17524;SDS011;40431;52.198;9.902;2022-07-06T07:09:02;2.67;;;0.97;;
17524;SDS011;40431;52.198;9.902;2022-07-06T07:11:30;2.97;;;1.30;;
17524;SDS011;40431;52.198;9.902;2022-07-06T07:13:58;2.33;;;1.10;;
17524;SDS011;40431;52.198;9.902;2022-07-06T07:16:26;3.93;;;1.37;;
17524;SDS011;40431;52.198;9.902;2022-07-06T07:18:55;4.00;;;1.30;;
17524;SDS011;40431;52.198;9.902;2022-07-06T07:21:23;1.00;;;0.90;;
17524;SDS011;40431;52.198;9.902;2022-07-06T07:23:50;4.33;;;1.17;;
17524;SDS011;40431;52.198;9.902;2022-07-06T07:26:18;2.63;;;1.00;;
17524;SDS011;40431;52.198;9.902;2022-07-06T07:28:45;2.37;;;1.03;;
17524;SDS011;40431;52.198;9.902;2022-07-06T07:31:13;2.27;;;1.07;;
17524;SDS011;40431;52.198;9.902;2022-07-06T07:33:41;1.67;;;0.80;;
17524;SDS011;40431;52.198;9.902;2022-07-06T07:36:16;1.00;;;0.80;;
17524;SDS011;40431;52.198;9.902;2022-07-06T07:38:43;2.67;;;1.07;;
17524;SDS011;40431;52.198;9.902;2022-07-06T07:41:11;3.13;;;0.80;;
17524;SDS011;40431;52.198;9.902;2022-07-06T07:43:39;2.67;;;1.37;;
17524;SDS011;40431;52.198;9.902;2022-07-06T07:46:06;1.23;;;0.80;;
17524;SDS011;40431;52.198;9.902;2022-07-06T07:48:34;1.53;;;0.90;;
17524;SDS011;40431;52.198;9.902;2022-07-06T07:51:02;1.97;;;1.20;;
17524;SDS011;40431;52.198;9.902;2022-07-06T07:53:31;4.97;;;1.17;;
17524;SDS011;40431;52.198;9.902;2022-07-06T07:55:59;2.20;;;0.90;;
17524;SDS011;40431;52.198;9.902;2022-07-06T07:58:26;2.47;;;1.20;;
17524;SDS011;40431;52.198;9.902;2022-07-06T08:00:54;2.03;;;1.20;;
17524;SDS011;40431;52.198;9.902;2022-07-06T08:03:21;3.47;;;1.27;;
17524;SDS011;40431;52.198;9.902;2022-07-06T08:05:51;2.37;;;1.10;;
17524;SDS011;40431;52.198;9.902;2022-07-06T08:08:34;1.33;;;1.07;;
17524;SDS011;40431;52.198;9.902;2022-07-06T08:11:02;2.13;;;1.20;;
17524;SDS011;40431;52.198;9.902;2022-07-06T08:13:30;2.10;;;0.97;;
17524;SDS011;40431;52.198;9.902;2022-07-06T08:15:58;1.67;;;0.70;;
17524;SDS011;40431;52.198;9.902;2022-07-06T08:18:26;0.73;;;0.63;;
17524;SDS011;40431;52.198;9.902;2022-07-06T08:20:53;1.97;;;0.70;;
17524;SDS011;40431;52.198;9.902;2022-07-06T08:23:22;3.20;;;1.13;;
17524;SDS011;40431;52.198;9.902;2022-07-06T08:25:51;1.87;;;0.80;;
17524;SDS011;40431;52.198;9.902;2022-07-06T08:28:19;2.33;;;0.80;;
17524;SDS011;40431;52.198;9.902;2022-07-06T08:30:47;2.37;;;0.90;;
17524;SDS011;40431;52.198;9.902;2022-07-06T08:33:15;2.07;;;0.77;;
17524;SDS011;40431;52.198;9.902;2022-07-06T08:35:42;1.77;;;1.00;;
17524;SDS011;40431;52.198;9.902;2022-07-06T08:38:10;1.80;;;1.00;;
17524;SDS011;40431;52.198;9.902;2022-07-06T08:40:38;1.93;;;1.10;;
17524;SDS011;40431;52.198;9.902;2022-07-06T08:43:08;1.33;;;0.77;;
17524;SDS011;40431;52.198;9.902;2022-07-06T08:45:36;3.80;;;1.07;;
17524;SDS011;40431;52.198;9.902;2022-07-06T08:48:05;2.10;;;1.00;;
17524;SDS011;40431;52.198;9.902;2022-07-06T08:50:34;3.53;;;1.03;;
17524;SDS011;40431;52.198;9.902;2022-07-06T08:53:01;2.73;;;1.00;;
17524;SDS011;40431;52.198;9.902;2022-07-06T08:55:30;2.53;;;1.23;;
17524;SDS011;40431;52.198;9.902;2022-07-06T08:57:58;2.23;;;0.70;;
17524;SDS011;40431;52.198;9.902;2022-07-06T09:00:27;1.93;;;0.70;;
17524;SDS011;40431;52.198;9.902;2022-07-06T09:02:55;3.90;;;1.10;;
17524;SDS011;40431;52.198;9.902;2022-07-06T09:05:23;1.90;;;0.80;;
17524;SDS011;40431;52.198;9.902;2022-07-06T09:07:52;1.80;;;0.67;;
17524;SDS011;40431;52.198;9.902;2022-07-06T09:10:21;3.00;;;0.80;;
17524;SDS011;40431;52.198;9.902;2022-07-06T09:12:49;1.33;;;0.70;;
17524;SDS011;40431;52.198;9.902;2022-07-06T09:15:17;1.80;;;0.93;;
17524;SDS011;40431;52.198;9.902;2022-07-06T09:17:47;1.80;;;0.80;;
17524;SDS011;40431;52.198;9.902;2022-07-06T09:20:15;3.20;;;0.90;;
17524;SDS011;40431;52.198;9.902;2022-07-06T09:22:43;1.33;;;0.77;;
17524;SDS011;40431;52.198;9.902;2022-07-06T09:25:11;1.43;;;0.70;;
17524;SDS011;40431;52.198;9.902;2022-07-06T09:27:40;1.43;;;0.90;;
17524;SDS011;40431;52.198;9.902;2022-07-06T09:30:15;1.47;;;0.70;;
17524;SDS011;40431;52.198;9.902;2022-07-06T09:32:44;2.50;;;1.00;;
17524;SDS011;40431;52.198;9.902;2022-07-06T09:35:20;0.80;;;0.60;;
17524;SDS011;40431;52.198;9.902;2022-07-06T09:37:59;1.90;;;0.90;;
17524;SDS011;40431;52.198;9.902;2022-07-06T09:40:29;1.43;;;1.00;;
17524;SDS011;40431;52.198;9.902;2022-07-06T09:43:08;1.53;;;0.80;;
17524;SDS011;40431;52.198;9.902;2022-07-06T09:45:41;2.87;;;0.80;;
17524;SDS011;40431;52.198;9.902;2022-07-06T09:48:11;2.40;;;0.90;;
17524;SDS011;40431;52.198;9.902;2022-07-06T09:50:45;1.07;;;0.80;;
17524;SDS011;40431;52.198;9.902;2022-07-06T09:53:14;3.70;;;0.83;;
17524;SDS011;40431;52.198;9.902;2022-07-06T09:55:43;1.47;;;0.90;;
17524;SDS011;40431;52.198;9.902;2022-07-06T09:58:12;1.90;;;0.83;;
17524;SDS011;40431;52.198;9.902;2022-07-06T10:00:40;1.43;;;0.80;;
17524;SDS011;40431;52.198;9.902;2022-07-06T10:03:07;3.37;;;1.13;;
17524;SDS011;40431;52.198;9.902;2022-07-06T10:05:35;3.07;;;0.97;;
17524;SDS011;40431;52.198;9.902;2022-07-06T10:08:06;2.43;;;0.83;;
17524;SDS011;40431;52.198;9.902;2022-07-06T10:10:36;1.20;;;0.90;;
17524;SDS011;40431;52.198;9.902;2022-07-06T10:13:06;1.70;;;0.60;;
17524;SDS011;40431;52.198;9.902;2022-07-06T10:15:35;2.00;;;1.00;;
17524;SDS011;40431;52.198;9.902;2022-07-06T10:18:04;1.43;;;0.70;;
17524;SDS011;40431;52.198;9.902;2022-07-06T10:20:33;0.93;;;0.67;;
17524;SDS011;40431;52.198;9.902;2022-07-06T10:23:05;1.27;;;0.70;;
17524;SDS011;40431;52.198;9.902;2022-07-06T10:25:34;3.00;;;0.90;;
17524;SDS011;40431;52.198;9.902;2022-07-06T10:28:02;1.30;;;0.70;;
17524;SDS011;40431;52.198;9.902;2022-07-06T10:30:42;1.33;;;0.60;;
17524;SDS011;40431;52.198;9.902;2022-07-06T10:33:15;1.47;;;0.60;;
17524;SDS011;40431;52.198;9.902;2022-07-06T10:35:44;2.00;;;0.90;;
17524;SDS011;40431;52.198;9.902;2022-07-06T10:38:14;1.07;;;0.80;;
17524;SDS011;40431;52.198;9.902;2022-07-06T10:40:42;1.37;;;0.90;;
17524;SDS011;40431;52.198;9.902;2022-07-06T10:43:31;3.17;;;1.00;;
17524;SDS011;40431;52.198;9.902;2022-07-06T10:46:05;1.40;;;0.73;;
17524;SDS011;40431;52.198;9.902;2022-07-06T10:48:34;2.30;;;1.00;;
17524;SDS011;40431;52.198;9.902;2022-07-06T10:51:01;1.47;;;0.60;;
17524;SDS011;40431;52.198;9.902;2022-07-06T10:53:31;1.53;;;0.60;;
17524;SDS011;40431;52.198;9.902;2022-07-06T10:56:00;3.73;;;0.70;;
17524;SDS011;40431;52.198;9.902;2022-07-06T10:58:35;1.40;;;0.70;;
17524;SDS011;40431;52.198;9.902;2022-07-06T11:01:04;0.77;;;0.70;;
17524;SDS011;40431;52.198;9.902;2022-07-06T11:03:32;1.50;;;0.80;;
17524;SDS011;40431;52.198;9.902;2022-07-06T11:05:59;1.83;;;1.00;;
17524;SDS011;40431;52.198;9.902;2022-07-06T11:08:47;0.63;;;0.57;;
17524;SDS011;40431;52.198;9.902;2022-07-06T11:11:16;1.80;;;0.80;;
17524;SDS011;40431;52.198;9.902;2022-07-06T11:13:47;0.70;;;0.70;;
17524;SDS011;40431;52.198;9.902;2022-07-06T11:16:15;2.30;;;0.80;;
17524;SDS011;40431;52.198;9.902;2022-07-06T11:18:45;2.47;;;0.90;;
17524;SDS011;40431;52.198;9.902;2022-07-06T11:21:17;1.07;;;0.70;;
17524;SDS011;40431;52.198;9.902;2022-07-06T11:23:46;1.10;;;0.67;;
17524;SDS011;40431;52.198;9.902;2022-07-06T11:26:14;0.80;;;0.60;;
17524;SDS011;40431;52.198;9.902;2022-07-06T11:28:41;3.80;;;0.97;;
17524;SDS011;40431;52.198;9.902;2022-07-06T11:31:08;2.73;;;0.90;;
17524;SDS011;40431;52.198;9.902;2022-07-06T11:33:34;1.63;;;0.80;;
17524;SDS011;40431;52.198;9.902;2022-07-06T11:36:11;0.87;;;0.50;;
17524;SDS011;40431;52.198;9.902;2022-07-06T11:38:38;0.77;;;0.77;;
17524;SDS011;40431;52.198;9.902;2022-07-06T11:41:06;1.13;;;0.73;;
17524;SDS011;40431;52.198;9.902;2022-07-06T11:43:32;0.97;;;0.80;;
17524;SDS011;40431;52.198;9.902;2022-07-06T11:45:59;1.67;;;0.80;;
17524;SDS011;40431;52.198;9.902;2022-07-06T11:48:25;1.57;;;0.60;;
17524;SDS011;40431;52.198;9.902;2022-07-06T11:50:58;0.87;;;0.80;;
17524;SDS011;40431;52.198;9.902;2022-07-06T11:53:26;2.27;;;0.70;;
17524;SDS011;40431;52.198;9.902;2022-07-06T11:55:53;1.50;;;0.77;;
17524;SDS011;40431;52.198;9.902;2022-07-06T11:58:23;1.07;;;0.70;;
17524;SDS011;40431;52.198;9.902;2022-07-06T12:01:03;0.60;;;0.60;;
17524;SDS011;40431;52.198;9.902;2022-07-06T12:03:35;2.03;;;0.70;;
17524;SDS011;40431;52.198;9.902;2022-07-06T12:06:03;1.57;;;0.60;;
17524;SDS011;40431;52.198;9.902;2022-07-06T12:08:32;2.47;;;0.80;;
17524;SDS011;40431;52.198;9.902;2022-07-06T12:11:08;1.47;;;0.80;;
17524;SDS011;40431;52.198;9.902;2022-07-06T12:13:42;1.20;;;0.67;;
17524;SDS011;40431;52.198;9.902;2022-07-06T12:16:10;1.13;;;0.50;;
17524;SDS011;40431;52.198;9.902;2022-07-06T12:18:40;0.73;;;0.60;;
17524;SDS011;40431;52.198;9.902;2022-07-06T12:21:08;0.60;;;0.50;;
17524;SDS011;40431;52.198;9.902;2022-07-06T12:23:38;1.70;;;0.67;;
17524;SDS011;40431;52.198;9.902;2022-07-06T12:26:07;1.43;;;0.47;;
17524;SDS011;40431;52.198;9.902;2022-07-06T12:28:36;0.53;;;0.53;;
17524;SDS011;40431;52.198;9.902;2022-07-06T12:31:05;1.20;;;0.50;;
17524;SDS011;40431;52.198;9.902;2022-07-06T12:33:33;1.27;;;0.67;;
17524;SDS011;40431;52.198;9.902;2022-07-06T12:36:10;1.40;;;0.90;;
17524;SDS011;40431;52.198;9.902;2022-07-06T12:38:46;1.97;;;0.40;;
17524;SDS011;40431;52.198;9.902;2022-07-06T12:44:04;0.77;;;0.50;;
17524;SDS011;40431;52.198;9.902;2022-07-06T12:46:36;0.50;;;0.50;;
17524;SDS011;40431;52.198;9.902;2022-07-06T12:49:12;1.50;;;0.60;;
17524;SDS011;40431;52.198;9.902;2022-07-06T12:51:48;0.70;;;0.60;;
17524;SDS011;40431;52.198;9.902;2022-07-06T12:54:24;1.13;;;0.60;;
17524;SDS011;40431;52.198;9.902;2022-07-06T12:56:57;3.70;;;0.60;;
17524;SDS011;40431;52.198;9.902;2022-07-06T12:59:28;1.37;;;0.83;;
17524;SDS011;40431;52.198;9.902;2022-07-06T13:01:58;0.77;;;0.50;;
17524;SDS011;40431;52.198;9.902;2022-07-06T13:04:26;0.80;;;0.53;;
17524;SDS011;40431;52.198;9.902;2022-07-06T13:06:57;0.70;;;0.60;;
17524;SDS011;40431;52.198;9.902;2022-07-06T13:09:26;1.63;;;0.70;;
17524;SDS011;40431;52.198;9.902;2022-07-06T13:11:53;0.57;;;0.57;;
17524;SDS011;40431;52.198;9.902;2022-07-06T13:14:21;1.73;;;0.53;;
17524;SDS011;40431;52.198;9.902;2022-07-06T13:16:49;4.17;;;1.00;;
17524;SDS011;40431;52.198;9.902;2022-07-06T13:19:18;1.43;;;0.67;;
17524;SDS011;40431;52.198;9.902;2022-07-06T13:21:46;1.03;;;0.60;;
17524;SDS011;40431;52.198;9.902;2022-07-06T13:24:14;1.87;;;0.60;;
17524;SDS011;40431;52.198;9.902;2022-07-06T13:26:42;1.27;;;0.60;;
17524;SDS011;40431;52.198;9.902;2022-07-06T13:29:11;1.10;;;0.50;;
17524;SDS011;40431;52.198;9.902;2022-07-06T13:31:40;2.40;;;0.50;;
17524;SDS011;40431;52.198;9.902;2022-07-06T13:34:12;1.17;;;0.60;;
17524;SDS011;40431;52.198;9.902;2022-07-06T13:36:42;4.47;;;0.90;;
17524;SDS011;40431;52.198;9.902;2022-07-06T13:39:10;1.90;;;0.90;;
17524;SDS011;40431;52.198;9.902;2022-07-06T13:41:37;1.17;;;0.60;;
17524;SDS011;40431;52.198;9.902;2022-07-06T13:44:05;1.17;;;0.50;;
17524;SDS011;40431;52.198;9.902;2022-07-06T13:46:34;1.90;;;0.93;;
17524;SDS011;40431;52.198;9.902;2022-07-06T13:49:04;2.73;;;0.90;;
17524;SDS011;40431;52.198;9.902;2022-07-06T13:51:32;1.93;;;0.73;;
17524;SDS011;40431;52.198;9.902;2022-07-06T13:54:06;2.20;;;0.70;;
17524;SDS011;40431;52.198;9.902;2022-07-06T13:56:42;1.53;;;0.90;;
17524;SDS011;40431;52.198;9.902;2022-07-06T13:59:13;0.73;;;0.60;;
17524;SDS011;40431;52.198;9.902;2022-07-06T14:01:44;2.43;;;1.00;;
17524;SDS011;40431;52.198;9.902;2022-07-06T14:04:12;2.13;;;0.73;;
17524;SDS011;40431;52.198;9.902;2022-07-06T14:06:39;1.03;;;0.60;;
17524;SDS011;40431;52.198;9.902;2022-07-06T14:09:08;0.90;;;0.60;;
17524;SDS011;40431;52.198;9.902;2022-07-06T14:11:36;1.27;;;0.53;;
17524;SDS011;40431;52.198;9.902;2022-07-06T14:14:04;1.63;;;0.60;;
17524;SDS011;40431;52.198;9.902;2022-07-06T14:16:33;1.20;;;0.60;;
17524;SDS011;40431;52.198;9.902;2022-07-06T14:19:01;2.13;;;0.70;;
17524;SDS011;40431;52.198;9.902;2022-07-06T14:21:28;1.13;;;0.70;;
17524;SDS011;40431;52.198;9.902;2022-07-06T14:23:56;1.47;;;0.70;;
17524;SDS011;40431;52.198;9.902;2022-07-06T14:26:25;1.60;;;0.80;;
17524;SDS011;40431;52.198;9.902;2022-07-06T14:28:52;1.83;;;0.63;;
17524;SDS011;40431;52.198;9.902;2022-07-06T14:31:20;0.70;;;0.50;;
17524;SDS011;40431;52.198;9.902;2022-07-06T14:33:48;5.37;;;0.80;;
17524;SDS011;40431;52.198;9.902;2022-07-06T14:36:16;0.80;;;0.50;;
17524;SDS011;40431;52.198;9.902;2022-07-06T14:38:44;0.60;;;0.60;;
17524;SDS011;40431;52.198;9.902;2022-07-06T14:41:13;1.80;;;0.80;;
17524;SDS011;40431;52.198;9.902;2022-07-06T14:43:42;1.63;;;0.77;;
17524;SDS011;40431;52.198;9.902;2022-07-06T14:46:09;3.27;;;0.80;;
17524;SDS011;40431;52.198;9.902;2022-07-06T14:48:37;3.67;;;0.70;;
17524;SDS011;40431;52.198;9.902;2022-07-06T14:51:04;1.33;;;0.87;;
17524;SDS011;40431;52.198;9.902;2022-07-06T14:53:32;1.50;;;0.90;;
17524;SDS011;40431;52.198;9.902;2022-07-06T14:56:00;2.53;;;1.10;;
17524;SDS011;40431;52.198;9.902;2022-07-06T14:58:28;0.87;;;0.57;;
17524;SDS011;40431;52.198;9.902;2022-07-06T15:00:57;1.27;;;0.83;;
17524;SDS011;40431;52.198;9.902;2022-07-06T15:03:24;4.40;;;0.80;;